Time;durP1;ratioP1;P1;durP2;ratioP2;P2;SDS_P1;SDS_P2;PMS_P1;PMS_P2;Temp;Humidity;BMP_temperature;BMP_pressure;BME280_temperature;BME280_humidity;BME280_pressure;Samples;Min_cycle;Max_cycle;Signal;HPM_P1;HPM_P2
2023/06/30 00:00:58;;;;;;;6.90;2.00;;;;;;;16.10;100.00;100263.28;5031500;28;20042;-69
2023/06/30 00:03:25;;;;;;;7.22;1.80;;;;;;;16.25;100.00;100262.19;5042141;28;20052;-69
2023/06/30 00:05:53;;;;;;;6.40;1.60;;;;;;;16.27;100.00;100267.38;5033822;28;20056;-69
2023/06/30 00:08:20;;;;;;;6.28;1.50;;;;;;;16.08;100.00;100244.06;5038260;28;20479;-69
2023/06/30 00:10:47;;;;;;;8.75;1.90;;;;;;;15.84;100.00;100250.03;5034092;28;20045;-69
2023/06/30 00:13:14;;;;;;;7.70;1.90;;;;;;;15.74;100.00;100246.28;5032044;28;20053;-69
2023/06/30 00:15:41;;;;;;;8.43;1.80;;;;;;;15.39;100.00;100228.38;5030609;28;20471;-69
2023/06/30 00:18:07;;;;;;;8.20;2.03;;;;;;;15.32;100.00;100222.66;5047307;28;20088;-69
2023/06/30 00:20:35;;;;;;;9.48;2.30;;;;;;;15.22;100.00;100239.19;5042756;28;20498;-69
2023/06/30 00:23:03;;;;;;;10.48;2.28;;;;;;;15.21;100.00;100243.63;5049674;28;20053;-69
2023/06/30 00:25:29;;;;;;;11.43;3.13;;;;;;;15.27;100.00;100229.19;5027425;28;20149;-69
2023/06/30 00:27:56;;;;;;;10.38;3.25;;;;;;;15.04;100.00;100220.97;5047295;28;20128;-69
2023/06/30 00:30:23;;;;;;;12.45;2.75;;;;;;;15.03;100.00;100224.53;5039498;28;20052;-69
2023/06/30 00:32:49;;;;;;;8.98;2.70;;;;;;;15.22;100.00;100229.47;5033823;28;20140;-69
2023/06/30 00:35:16;;;;;;;8.73;2.40;;;;;;;15.31;100.00;100218.31;5042136;28;20063;-69
2023/06/30 00:37:43;;;;;;;8.00;2.33;;;;;;;15.31;100.00;100220.13;5052196;28;20487;-69
2023/06/30 00:40:11;;;;;;;9.00;2.30;;;;;;;15.35;100.00;100219.81;5038954;28;20128;-69
2023/06/30 00:42:37;;;;;;;8.05;2.25;;;;;;;15.45;100.00;100212.13;5042085;28;20056;-69
2023/06/30 00:45:05;;;;;;;9.57;2.30;;;;;;;15.54;100.00;100213.31;5029271;28;20188;-70
2023/06/30 00:47:32;;;;;;;13.35;3.05;;;;;;;15.68;100.00;100223.78;5032999;28;20124;-69
2023/06/30 00:49:59;;;;;;;8.88;2.58;;;;;;;15.65;100.00;100216.09;5045944;28;20057;-69
2023/06/30 00:52:26;;;;;;;10.23;2.35;;;;;;;15.62;100.00;100220.75;5033294;28;20057;-69
2023/06/30 00:54:52;;;;;;;7.18;2.20;;;;;;;15.55;100.00;100223.78;5034206;28;20495;-69
2023/06/30 00:57:19;;;;;;;13.15;2.78;;;;;;;15.51;100.00;100219.66;5035436;28;20045;-69
2023/06/30 00:59:46;;;;;;;13.07;2.58;;;;;;;15.42;100.00;100214.97;5041262;28;20077;-69
2023/06/30 01:02:24;;;;;;;10.85;2.85;;;;;;;15.43;100.00;100205.28;5031623;28;20566;-70
2023/06/30 01:05:07;;;;;;;9.85;2.75;;;;;;;15.30;100.00;100210.53;5016162;28;20050;-70
2023/06/30 01:07:42;;;;;;;8.63;2.50;;;;;;;15.28;100.00;100196.56;5035578;28;20056;-70
2023/06/30 01:10:14;;;;;;;6.80;2.10;;;;;;;15.28;100.00;100197.44;5032991;28;20806;-70
2023/06/30 01:12:43;;;;;;;11.90;3.38;;;;;;;15.03;100.00;100184.16;5046068;28;20107;-70
2023/06/30 01:15:11;;;;;;;6.43;2.28;;;;;;;14.99;100.00;100165.88;5041210;28;20053;-69
2023/06/30 01:17:44;;;;;;;8.63;2.60;;;;;;;15.08;100.00;100172.34;5035359;28;20057;-69
2023/06/30 01:20:14;;;;;;;6.95;1.77;;;;;;;15.10;100.00;100162.59;5033717;28;20474;-69
2023/06/30 01:23:05;;;;;;;12.32;3.20;;;;;;;14.90;100.00;100165.66;5039342;28;20049;-69
2023/06/30 01:25:33;;;;;;;11.23;2.90;;;;;;;14.75;100.00;100168.34;5019716;28;20487;-68
2023/06/30 01:28:02;;;;;;;14.02;2.72;;;;;;;14.97;100.00;100164.31;5026815;28;20504;-68
2023/06/30 01:30:29;;;;;;;14.13;2.97;;;;;;;15.10;100.00;100157.31;5052073;28;20049;-69
2023/06/30 01:32:58;;;;;;;7.18;2.17;;;;;;;15.07;100.00;100167.19;5032990;28;20085;-68
2023/06/30 01:35:27;;;;;;;7.80;2.13;;;;;;;15.04;100.00;100148.94;5040693;28;20057;-68
2023/06/30 01:37:54;;;;;;;10.05;2.58;;;;;;;15.09;100.00;100150.34;5048481;28;20131;-69
2023/06/30 01:40:21;;;;;;;9.13;2.42;;;;;;;14.97;100.00;100137.97;5049701;28;20076;-69
2023/06/30 01:42:52;;;;;;;8.20;2.15;;;;;;;15.03;100.00;100141.97;5035737;28;20054;-68
2023/06/30 01:45:20;;;;;;;9.70;2.03;;;;;;;15.08;100.00;100140.72;5027604;28;20052;-69
2023/06/30 01:47:49;;;;;;;6.22;2.20;;;;;;;14.93;100.00;100139.94;5040110;28;20064;-69
2023/06/30 01:50:16;;;;;;;10.18;2.30;;;;;;;14.95;100.00;100126.66;5047050;28;20862;-69
2023/06/30 01:52:43;;;;;;;13.63;3.05;;;;;;;14.90;100.00;100118.22;5048587;28;20410;-69
2023/06/30 01:55:10;;;;;;;13.63;3.20;;;;;;;14.70;100.00;100120.34;5029687;28;20057;-69
2023/06/30 01:57:37;;;;;;;9.18;2.58;;;;;;;14.82;100.00;100124.00;5049585;28;20057;-70
2023/06/30 02:00:06;;;;;;;9.70;2.42;;;;;;;14.93;100.00;100112.75;5039219;28;20274;-69
2023/06/30 02:02:33;;;;;;;9.77;2.78;;;;;;;14.96;100.00;100104.63;5026235;28;20059;-70
2023/06/30 02:05:00;;;;;;;10.65;2.30;;;;;;;14.84;100.00;100102.78;5031066;28;20050;-69
2023/06/30 02:07:26;;;;;;;10.23;3.05;;;;;;;14.68;100.00;100097.66;5034244;28;20084;-70
2023/06/30 02:09:53;;;;;;;10.57;3.25;;;;;;;14.52;100.00;100068.81;5036158;28;20106;-70
2023/06/30 02:12:20;;;;;;;13.40;3.13;;;;;;;14.61;100.00;100084.06;5050547;28;20079;-70
2023/06/30 02:14:47;;;;;;;8.20;2.33;;;;;;;14.61;100.00;100077.00;5043630;28;20080;-68
2023/06/30 02:17:13;;;;;;;10.13;2.38;;;;;;;14.71;100.00;100079.88;5040970;28;20124;-68
2023/06/30 02:19:40;;;;;;;9.55;2.67;;;;;;;14.79;100.00;100071.47;5030015;28;20050;-68
2023/06/30 02:22:07;;;;;;;9.32;2.80;;;;;;;14.75;100.00;100057.66;5022254;28;20615;-69
2023/06/30 02:24:34;;;;;;;9.80;2.25;;;;;;;14.68;100.00;100055.50;5029688;28;20095;-69
2023/06/30 02:27:01;;;;;;;16.08;2.83;;;;;;;14.69;100.00;100054.59;5027215;28;20137;-69
2023/06/30 02:29:27;;;;;;;11.13;3.05;;;;;;;14.68;100.00;100055.50;5031003;28;20045;-70
2023/06/30 02:31:54;;;;;;;10.73;2.95;;;;;;;14.68;100.00;100056.38;5040476;28;20047;-70
2023/06/30 02:34:21;;;;;;;7.25;2.63;;;;;;;14.68;100.00;100055.50;5029300;28;20056;-70
2023/06/30 02:36:48;;;;;;;12.43;2.60;;;;;;;14.86;100.00;100051.69;5028997;28;20085;-70
2023/06/30 02:39:15;;;;;;;8.30;2.67;;;;;;;15.07;100.00;100065.22;5021851;28;20053;-70
2023/06/30 02:41:42;;;;;;;8.57;2.38;;;;;;;15.05;100.00;100055.72;5028253;28;20103;-70
2023/06/30 02:44:08;;;;;;;7.85;2.50;;;;;;;14.95;100.00;100058.97;5025683;28;20514;-70
2023/06/30 02:46:35;;;;;;;9.02;2.70;;;;;;;14.81;100.00;100056.41;5027405;28;20071;-70
2023/06/30 02:49:02;;;;;;;9.30;2.58;;;;;;;15.02;100.00;100063.84;5030842;28;20045;-70
2023/06/30 02:51:28;;;;;;;12.48;3.33;;;;;;;14.95;100.00;100055.50;5030138;28;20048;-70
2023/06/30 02:53:55;;;;;;;9.20;2.50;;;;;;;15.04;100.00;100054.03;5030185;28;20514;-70
2023/06/30 02:56:22;;;;;;;10.90;2.50;;;;;;;14.98;100.00;100058.78;5028828;28;20049;-70
2023/06/30 02:58:50;;;;;;;8.40;2.30;;;;;;;14.72;100.00;100038.56;5029913;28;20049;-70
2023/06/30 03:01:20;;;;;;;10.35;2.65;;;;;;;14.66;100.00;100044.22;5024799;28;20073;-70
2023/06/30 03:03:48;;;;;;;12.20;4.20;;;;;;;14.43;100.00;100038.66;5019127;28;20123;-69
2023/06/30 03:06:15;;;;;;;12.00;3.03;;;;;;;14.64;100.00;100027.69;5027791;28;20128;-69
2023/06/30 03:08:42;;;;;;;13.63;4.03;;;;;;;14.44;100.00;100030.63;5018470;28;20134;-69
2023/06/30 03:11:09;;;;;;;12.38;3.17;;;;;;;14.55;100.00;100034.38;5038190;28;20138;-69
2023/06/30 03:13:35;;;;;;;10.68;2.92;;;;;;;14.73;100.00;100027.06;5010516;28;20065;-69
2023/06/30 03:16:02;;;;;;;10.02;3.03;;;;;;;14.71;100.00;100028.97;5022835;28;20045;-69
2023/06/30 03:18:29;;;;;;;11.40;2.65;;;;;;;14.75;100.00;100033.94;5009840;28;20049;-69
2023/06/30 03:20:56;;;;;;;13.02;2.78;;;;;;;14.96;100.00;100039.59;5023806;28;20049;-69
2023/06/30 03:23:23;;;;;;;8.15;2.40;;;;;;;14.95;100.00;100029.13;5010647;28;20099;-70
2023/06/30 03:25:49;;;;;;;8.48;3.13;;;;;;;14.85;100.00;100028.06;5021318;28;20060;-69
2023/06/30 03:28:16;;;;;;;10.10;2.83;;;;;;;14.58;100.00;100021.88;5022592;28;20490;-69
2023/06/30 03:30:43;;;;;;;10.75;2.92;;;;;;;14.64;100.00;100025.88;5030656;28;20092;-69
2023/06/30 03:33:09;;;;;;;10.15;2.90;;;;;;;14.52;100.00;100017.00;5026857;28;20060;-68
2023/06/30 03:35:36;;;;;;;10.57;3.65;;;;;;;14.30;100.00;100009.63;5014732;28;20128;-68
2023/06/30 03:38:03;;;;;;;10.15;3.38;;;;;;;14.36;100.00;100001.34;5031036;28;20052;-68
2023/06/30 03:40:29;;;;;;;10.10;2.30;;;;;;;14.49;100.00;100004.00;5023026;28;20046;-68
2023/06/30 03:42:56;;;;;;;9.27;2.65;;;;;;;14.69;100.00;99999.25;5020609;28;20530;-68
2023/06/30 03:45:23;;;;;;;9.48;3.03;;;;;;;14.55;100.00;99993.06;5021192;28;20042;-68
2023/06/30 03:47:50;;;;;;;10.27;2.55;;;;;;;14.71;100.00;99997.34;5018420;28;20163;-69
2023/06/30 03:50:16;;;;;;;8.23;2.40;;;;;;;14.70;100.00;99993.88;5029418;28;20091;-68
2023/06/30 03:52:43;;;;;;;7.82;2.33;;;;;;;14.60;100.00;99991.00;5021570;28;20551;-69
2023/06/30 03:55:10;;;;;;;8.90;3.00;;;;;;;14.71;100.00;99998.19;5010469;28;20079;-68
2023/06/30 03:57:37;;;;;;;10.70;2.47;;;;;;;14.57;100.00;99990.31;5018533;28;20499;-68
2023/06/30 04:00:04;;;;;;;8.13;2.40;;;;;;;14.73;100.00;99977.88;5030097;28;20509;-68
2023/06/30 04:02:31;;;;;;;12.57;3.10;;;;;;;14.71;100.00;99994.72;5023456;28;20057;-69
2023/06/30 04:04:58;;;;;;;9.32;2.45;;;;;;;14.73;100.00;99993.69;5018997;28;20053;-68
2023/06/30 04:07:25;;;;;;;13.52;3.00;;;;;;;14.83;100.00;99993.06;5017891;28;20042;-68
2023/06/30 04:09:53;;;;;;;10.40;2.75;;;;;;;14.93;100.00;99991.50;5018412;28;20077;-69
2023/06/30 04:12:19;;;;;;;6.55;2.17;;;;;;;14.87;100.00;99982.19;5027898;28;20049;-69
2023/06/30 04:14:46;;;;;;;9.98;2.63;;;;;;;14.96;100.00;99986.00;5015260;28;20513;-69
2023/06/30 04:17:13;;;;;;;10.40;2.70;;;;;;;14.94;100.00;99985.25;5029291;28;20045;-68
2023/06/30 04:19:40;;;;;;;9.30;3.25;;;;;;;15.03;100.00;99982.00;5011212;28;20050;-69
2023/06/30 04:22:06;;;;;;;9.73;3.10;;;;;;;15.06;100.00;99971.25;5032031;28;20067;-68
2023/06/30 04:24:34;;;;;;;12.82;3.03;;;;;;;15.09;100.00;99976.31;5017050;28;20060;-69
2023/06/30 04:27:02;;;;;;;11.82;3.40;;;;;;;15.12;100.00;99973.47;5022681;28;20045;-69
2023/06/30 04:29:29;;;;;;;10.35;3.10;;;;;;;15.08;100.00;99971.16;5016565;28;20054;-69
2023/06/30 04:31:55;;;;;;;9.80;2.90;;;;;;;15.06;100.00;99962.50;5018693;28;20541;-69
2023/06/30 04:34:22;;;;;;;11.25;3.53;;;;;;;15.07;100.00;99966.81;5018775;28;20096;-69
2023/06/30 04:36:49;;;;;;;12.90;3.67;;;;;;;14.78;100.00;99959.97;5026024;28;20080;-68
2023/06/30 04:39:17;;;;;;;10.27;2.90;;;;;;;14.86;100.00;99963.88;5019824;28;20077;-68
2023/06/30 04:41:46;;;;;;;10.07;3.13;;;;;;;14.85;100.00;99957.75;5017630;28;20054;-68
2023/06/30 04:44:13;;;;;;;8.40;2.72;;;;;;;14.95;100.00;99960.59;5025300;28;20395;-69
2023/06/30 04:46:39;;;;;;;10.55;3.22;;;;;;;15.04;100.00;99961.78;5028187;28;20394;-69
2023/06/30 04:49:06;;;;;;;9.88;3.25;;;;;;;15.00;100.00;99961.13;5026457;28;20058;-69
2023/06/30 04:51:33;;;;;;;7.47;2.80;;;;;;;15.19;100.00;99958.06;5020819;28;20391;-69
2023/06/30 04:54:01;;;;;;;7.50;2.72;;;;;;;15.27;100.00;99968.09;5027520;28;20338;-69
2023/06/30 04:56:29;;;;;;;9.90;2.95;;;;;;;15.19;100.00;99952.78;5030474;28;20148;-69
2023/06/30 04:58:56;;;;;;;8.38;2.67;;;;;;;15.05;100.00;99952.91;5027560;28;20053;-69
2023/06/30 05:01:23;;;;;;;9.35;2.97;;;;;;;15.08;100.00;99956.16;5015610;28;20483;-69
2023/06/30 05:03:49;;;;;;;10.80;3.20;;;;;;;15.11;100.00;99961.22;5041315;28;20057;-69
2023/06/30 05:06:16;;;;;;;9.00;2.67;;;;;;;15.13;100.00;99953.22;5024660;28;20666;-69
2023/06/30 05:08:43;;;;;;;9.98;3.13;;;;;;;14.99;100.00;99944.47;5031762;28;20082;-70
2023/06/30 05:11:10;;;;;;;15.32;3.20;;;;;;;15.00;100.00;99947.97;5031340;28;20053;-70
2023/06/30 05:13:36;;;;;;;9.43;3.50;;;;;;;15.03;100.00;99941.63;5031844;28;20068;-70
2023/06/30 05:16:03;;;;;;;9.23;2.80;;;;;;;15.00;100.00;99940.88;5030197;28;20152;-69
2023/06/30 05:18:30;;;;;;;10.20;3.30;;;;;;;14.99;100.00;99946.25;5032329;28;20443;-69
2023/06/30 05:20:57;;;;;;;7.72;2.63;;;;;;;15.00;100.00;99946.16;5027750;28;20048;-69
2023/06/30 05:23:25;;;;;;;8.43;2.67;;;;;;;15.04;100.00;99938.03;5013620;28;20056;-69
2023/06/30 05:25:53;;;;;;;10.00;3.35;;;;;;;14.98;100.00;99942.78;5028333;28;20054;-69
2023/06/30 05:28:20;;;;;;;10.13;3.28;;;;;;;14.92;100.00;99930.00;5031388;28;20059;-69
2023/06/30 05:30:47;;;;;;;11.88;3.05;;;;;;;15.07;100.00;99938.69;5027791;28;20089;-69
2023/06/30 05:33:14;;;;;;;10.52;2.75;;;;;;;15.10;100.00;99934.97;5030946;28;20483;-69
2023/06/30 05:35:40;;;;;;;10.23;3.80;;;;;;;14.89;100.00;99932.88;5028933;28;20510;-69
2023/06/30 05:38:07;;;;;;;12.25;3.72;;;;;;;14.97;100.00;99937.63;5031259;28;20056;-69
2023/06/30 05:40:34;;;;;;;9.60;2.97;;;;;;;14.90;100.00;99923.19;5030950;28;20132;-69
2023/06/30 05:43:01;;;;;;;11.45;3.35;;;;;;;15.16;100.00;99942.47;5026590;28;20046;-69
2023/06/30 05:45:27;;;;;;;8.45;3.30;;;;;;;15.31;100.00;99936.09;5023066;28;20055;-69
2023/06/30 05:47:54;;;;;;;9.77;3.53;;;;;;;15.43;100.00;99938.84;5026051;28;20136;-69
2023/06/30 05:50:22;;;;;;;12.52;3.50;;;;;;;15.37;100.00;99934.88;5018588;28;20049;-69
2023/06/30 05:52:49;;;;;;;9.82;3.38;;;;;;;15.44;100.00;99937.88;5028439;28;20046;-69
2023/06/30 05:55:16;;;;;;;10.13;3.40;;;;;;;15.52;100.00;99939.03;5018172;28;20087;-69
2023/06/30 05:57:43;;;;;;;11.20;3.47;;;;;;;15.39;100.00;99938.22;5025870;28;20400;-69
2023/06/30 06:00:10;;;;;;;12.32;4.00;;;;;;;15.28;100.00;99935.47;5030935;28;20484;-69
2023/06/30 06:02:37;;;;;;;11.43;3.38;;;;;;;15.22;100.00;99923.56;5031038;28;20052;-69
2023/06/30 06:05:05;;;;;;;7.47;3.03;;;;;;;15.27;100.00;99933.81;5027229;28;20049;-69
2023/06/30 06:07:32;;;;;;;11.43;4.30;;;;;;;15.12;100.00;99920.75;5026801;28;20540;-69
2023/06/30 06:09:59;;;;;;;8.88;3.33;;;;;;;15.24;100.00;99911.13;5015228;28;20049;-70
2023/06/30 06:12:26;;;;;;;12.30;4.13;;;;;;;15.15;100.00;99914.41;5012941;28;20052;-69
2023/06/30 06:14:53;;;;;;;12.90;4.13;;;;;;;15.09;100.00;99910.41;5021911;28;20080;-69
2023/06/30 06:17:19;;;;;;;12.02;3.63;;;;;;;15.15;100.00;99909.13;5022352;28;20540;-69
2023/06/30 06:19:46;;;;;;;8.00;3.40;;;;;;;15.11;100.00;99908.50;5027798;28;20049;-69
2023/06/30 06:22:13;;;;;;;16.52;4.47;;;;;;;14.99;100.00;99898.81;5024677;28;20049;-69
2023/06/30 06:24:40;;;;;;;13.38;3.60;;;;;;;14.93;100.00;99897.44;5021307;28;20133;-69
2023/06/30 06:27:06;;;;;;;10.52;3.50;;;;;;;15.18;100.00;99901.00;5019845;28;20057;-69
2023/06/30 06:29:33;;;;;;;11.43;4.40;;;;;;;15.11;100.00;99895.31;5025546;28;20053;-70
2023/06/30 06:32:00;;;;;;;12.27;3.80;;;;;;;15.17;100.00;99888.78;5026573;28;20677;-70
2023/06/30 06:34:27;;;;;;;10.40;3.42;;;;;;;15.28;100.00;99883.59;5022200;28;20132;-69
2023/06/30 06:36:53;;;;;;;13.38;4.88;;;;;;;15.28;100.00;99880.97;5017136;28;20050;-70
2023/06/30 06:39:20;;;;;;;10.55;3.85;;;;;;;15.30;100.00;99886.13;5023523;28;20060;-69
2023/06/30 06:41:47;;;;;;;11.32;3.67;;;;;;;15.47;100.00;99872.56;5019972;28;20048;-70
2023/06/30 06:44:14;;;;;;;10.88;4.18;;;;;;;15.59;100.00;99876.13;5023815;28;20045;-70
2023/06/30 06:46:42;;;;;;;11.18;4.07;;;;;;;15.52;100.00;99882.78;5027516;28;20056;-70
2023/06/30 06:49:10;;;;;;;12.32;3.92;;;;;;;15.49;100.00;99891.78;5027053;28;20049;-69
2023/06/30 06:51:36;;;;;;;16.95;5.40;;;;;;;15.26;100.00;99893.38;5022251;28;20142;-70
2023/06/30 06:54:03;;;;;;;15.50;5.38;;;;;;;15.40;100.00;99888.94;5022617;28;20045;-70
2023/06/30 06:56:30;;;;;;;11.45;3.97;;;;;;;15.55;100.00;99893.13;5020934;28;20542;-70
2023/06/30 06:58:57;;;;;;;10.68;3.80;;;;;;;15.51;100.00;99886.38;5027901;28;20046;-69
2023/06/30 07:01:23;;;;;;;13.68;5.43;;;;;;;15.31;100.00;99882.53;5027298;28;20080;-69
2023/06/30 07:03:50;;;;;;;14.13;4.45;;;;;;;15.46;100.00;99880.63;5021473;28;20082;-70
2023/06/30 07:06:18;;;;;;;12.10;3.83;;;;;;;15.54;100.00;99894.06;5023731;28;20124;-69
2023/06/30 07:08:45;;;;;;;9.82;3.97;;;;;;;15.46;100.00;99893.81;5029446;28;20132;-70
2023/06/30 07:11:12;;;;;;;11.93;4.72;;;;;;;15.44;100.00;99887.75;5025211;28;20053;-69
2023/06/30 07:13:40;;;;;;;12.60;4.55;;;;;;;15.44;100.00;99880.72;5024644;28;20054;-70
2023/06/30 07:16:06;;;;;;;13.75;4.60;;;;;;;15.51;100.00;99896.94;5026179;28;20382;-70
2023/06/30 07:18:34;;;;;;;14.38;5.43;;;;;;;15.44;100.00;99903.59;5029331;28;20407;-70
2023/06/30 07:21:02;;;;;;;12.82;4.28;;;;;;;15.51;100.00;99899.56;5015948;28;20132;-70
2023/06/30 07:23:28;;;;;;;12.20;4.90;;;;;;;15.23;100.00;99888.34;5019210;28;20052;-70
2023/06/30 07:25:55;;;;;;;13.43;3.88;;;;;;;15.35;100.00;99898.03;5019169;28;20049;-70
2023/06/30 07:28:22;;;;;;;15.82;5.65;;;;;;;15.36;100.00;99893.59;5020226;28;20042;-69
2023/06/30 07:30:48;;;;;;;11.93;4.13;;;;;;;15.34;100.00;99882.31;5028128;28;20057;-70
2023/06/30 07:33:17;;;;;;;10.50;3.50;;;;;;;15.38;100.00;99884.59;5025397;28;20533;-69
2023/06/30 07:35:44;;;;;;;13.18;3.72;;;;;;;15.45;100.00;99884.19;5025233;28;20391;-70
2023/06/30 07:38:11;;;;;;;9.50;3.30;;;;;;;15.39;100.00;99874.94;5018494;28;20236;-70
2023/06/30 07:40:38;;;;;;;9.73;3.20;;;;;;;15.34;100.00;99877.88;5027729;28;20049;-70
2023/06/30 07:43:08;;;;;;;10.07;4.45;;;;;;;15.27;100.00;99881.91;5014590;28;20418;-70
2023/06/30 07:45:35;;;;;;;11.52;3.88;;;;;;;15.45;100.00;99885.03;5020347;28;20667;-70
2023/06/30 07:48:02;;;;;;;11.32;3.67;;;;;;;15.42;100.00;99882.59;5027435;28;20507;-70
2023/06/30 07:50:29;;;;;;;8.98;3.30;;;;;;;15.48;100.00;99866.34;5027233;28;20049;-69
2023/06/30 07:52:56;;;;;;;10.98;3.92;;;;;;;15.62;100.00;99886.47;5016986;28;20056;-69
2023/06/30 07:55:22;;;;;;;14.13;4.70;;;;;;;15.50;100.00;99885.53;5015424;28;20065;-69
2023/06/30 07:57:51;;;;;;;12.98;4.70;;;;;;;15.41;100.00;99880.09;5016167;28;20107;-69
2023/06/30 08:00:20;;;;;;;11.40;4.00;;;;;;;15.45;100.00;99885.03;5018232;28;20448;-70
2023/06/30 08:02:47;;;;;;;12.18;3.90;;;;;;;15.56;100.00;99885.13;5029162;28;20124;-70
2023/06/30 08:05:14;;;;;;;14.85;4.35;;;;;;;15.29;100.00;99866.81;5030744;28;20049;-70
2023/06/30 08:07:41;;;;;;;14.55;5.97;;;;;;;15.26;100.00;99874.09;5030082;28;20053;-70
2023/06/30 08:10:16;;;;;;;12.77;6.03;;;;;;;15.33;100.00;99867.44;5022951;28;20537;-70
2023/06/30 08:12:43;;;;;;;14.23;4.20;;;;;;;15.48;100.00;99876.91;5032771;28;20060;-70
2023/06/30 08:15:10;;;;;;;14.25;5.03;;;;;;;15.50;100.00;99880.25;5029423;28;20061;-69
2023/06/30 08:17:36;;;;;;;12.40;3.95;;;;;;;15.65;100.00;99861.63;5030408;28;20045;-70
2023/06/30 08:20:23;;;;;;;14.25;4.43;;;;;;;15.64;100.00;99852.06;5030382;28;20045;-69
2023/06/30 08:22:52;;;;;;;11.43;3.85;;;;;;;15.84;100.00;99838.25;5032712;28;20064;-70
2023/06/30 08:25:22;;;;;;;12.98;3.70;;;;;;;15.94;100.00;99841.06;5029850;28;20046;-70
2023/06/30 08:27:49;;;;;;;11.88;4.20;;;;;;;15.73;100.00;99820.53;5031521;28;20041;-70
2023/06/30 08:30:16;;;;;;;12.45;3.90;;;;;;;15.93;100.00;99826.16;5029669;28;20100;-70
2023/06/30 08:32:46;;;;;;;12.63;3.78;;;;;;;16.30;100.00;99826.03;5029902;28;20050;-70
2023/06/30 08:35:13;;;;;;;10.68;3.80;;;;;;;16.50;100.00;99824.50;5029542;28;20084;-70
2023/06/30 08:37:39;;;;;;;15.93;4.78;;;;;;;16.40;100.00;99823.56;5031210;28;20057;-70
2023/06/30 08:40:07;;;;;;;11.63;4.28;;;;;;;16.50;100.00;99822.72;5032950;28;20141;-70
2023/06/30 08:42:36;;;;;;;16.42;3.92;;;;;;;16.66;100.00;99826.81;5032938;28;20048;-70
2023/06/30 08:45:03;;;;;;;16.13;5.20;;;;;;;16.66;100.00;99813.59;5026570;28;20375;-70
2023/06/30 08:47:32;;;;;;;18.15;4.43;;;;;;;16.97;100.00;99822.66;5018579;28;20605;-69
2023/06/30 08:50:00;;;;;;;17.27;3.97;;;;;;;17.04;100.00;99802.69;5032074;28;20141;-70
2023/06/30 08:52:28;;;;;;;18.17;5.57;;;;;;;17.03;100.00;99821.31;5012942;28;20080;-70
2023/06/30 08:54:55;;;;;;;11.63;3.42;;;;;;;17.49;100.00;99825.56;5020555;28;20076;-69
2023/06/30 08:57:24;;;;;;;17.63;4.78;;;;;;;17.50;100.00;99815.84;5026862;28;20542;-70
2023/06/30 08:59:51;;;;;;;16.05;4.75;;;;;;;17.72;100.00;99810.47;5012926;28;20050;-70
2023/06/30 09:02:19;;;;;;;14.93;4.35;;;;;;;17.59;100.00;99815.09;5025193;28;20048;-67
2023/06/30 09:04:46;;;;;;;14.07;4.05;;;;;;;17.84;100.00;99805.97;5016042;28;20081;-67
2023/06/30 09:07:25;;;;;;;10.32;3.42;;;;;;;18.21;100.00;99810.88;5020960;28;20084;-67
2023/06/30 09:09:59;;;;;;;12.50;4.07;;;;;;;18.13;100.00;99803.59;5020739;28;20061;-67
2023/06/30 09:12:27;;;;;;;17.80;5.03;;;;;;;17.91;100.00;99801.03;5039130;28;20522;-68
2023/06/30 09:14:58;;;;;;;10.65;3.90;;;;;;;17.62;100.00;99797.16;5024199;28;20057;-68
2023/06/30 09:17:26;;;;;;;15.32;4.63;;;;;;;17.93;100.00;99784.03;5028859;28;20061;-67
2023/06/30 09:19:54;;;;;;;25.08;5.80;;;;;;;17.65;100.00;99780.16;5030715;28;20636;-68
2023/06/30 09:22:21;;;;;;;16.80;4.45;;;;;;;17.58;100.00;99777.22;5022167;28;20045;-68
2023/06/30 09:25:28;;;;;;;18.85;5.05;;;;;;;17.62;100.00;99783.09;5029070;28;20049;-68
2023/06/30 09:27:55;;;;;;;17.90;5.50;;;;;;;17.16;100.00;99770.97;5026316;28;20495;-68
2023/06/30 09:30:38;;;;;;;15.15;5.38;;;;;;;17.32;100.00;99783.78;5023531;28;20057;-68
2023/06/30 09:33:06;;;;;;;16.23;5.97;;;;;;;17.27;100.00;99781.50;5023030;28;20041;-68
2023/06/30 09:35:40;;;;;;;13.48;4.30;;;;;;;17.70;100.00;99761.25;5028717;28;20050;-68
2023/06/30 09:38:15;;;;;;;18.50;4.78;;;;;;;17.76;100.00;99779.28;5031730;28;20530;-68
2023/06/30 09:40:50;;;;;;;16.00;4.60;;;;;;;17.56;100.00;99776.47;5019634;28;20062;-68
2023/06/30 09:43:17;;;;;;;13.77;4.95;;;;;;;17.63;100.00;99787.41;5023586;28;20053;-68
2023/06/30 09:45:53;;;;;;;19.70;5.18;;;;;;;17.90;100.00;99788.75;5016465;28;20045;-68
2023/06/30 09:48:40;;;;;;;20.58;5.35;;;;;;;17.64;100.00;99786.44;5031759;28;20081;-68
2023/06/30 09:51:07;;;;;;;22.23;5.45;;;;;;;17.41;100.00;99767.16;5014498;28;20097;-68
2023/06/30 09:53:40;;;;;;;18.63;5.72;;;;;;;17.25;100.00;99762.28;5030062;28;20056;-69
2023/06/30 09:56:08;;;;;;;23.60;6.30;;;;;;;17.42;100.00;99766.19;5026909;28;20505;-68
2023/06/30 09:58:42;;;;;;;16.92;6.03;;;;;;;17.54;100.00;99765.16;5028336;28;20078;-69
2023/06/30 10:01:09;;;;;;;19.05;5.38;;;;;;;17.42;100.00;99755.59;5030252;28;20041;-68
2023/06/30 10:03:51;;;;;;;14.02;4.95;;;;;;;17.64;100.00;99757.31;5016915;28;20138;-68
2023/06/30 10:06:22;;;;;;;15.38;5.25;;;;;;;17.37;100.00;99757.78;5022835;28;20549;-67
2023/06/30 10:08:53;;;;;;;18.05;5.18;;;;;;;17.76;100.00;99758.97;5025611;28;20126;-67
2023/06/30 10:11:22;;;;;;;14.63;5.90;;;;;;;17.37;100.00;99755.13;5023628;28;20411;-67
2023/06/30 10:13:52;;;;;;;16.77;4.80;;;;;;;17.70;100.00;99740.09;5029237;28;20129;-68
2023/06/30 10:16:21;;;;;;;17.30;5.43;;;;;;;18.07;100.00;99753.75;5034900;28;20051;-68
2023/06/30 10:18:50;;;;;;;15.82;5.38;;;;;;;18.66;100.00;99757.56;5023293;28;20328;-67
2023/06/30 10:21:17;;;;;;;18.90;5.88;;;;;;;18.30;100.00;99757.09;5046451;28;20057;-68
2023/06/30 10:23:47;;;;;;;14.90;5.53;;;;;;;17.92;100.00;99762.97;5028141;28;20049;-67
2023/06/30 10:26:18;;;;;;;12.98;4.80;;;;;;;18.18;100.00;99737.81;5025915;28;20083;-67
2023/06/30 10:28:46;;;;;;;14.25;4.47;;;;;;;18.11;100.00;99741.09;5029209;28;20055;-68
2023/06/30 10:31:13;;;;;;;11.25;4.45;;;;;;;18.14;100.00;99749.63;5029917;28;20132;-69
2023/06/30 10:33:40;;;;;;;16.45;4.68;;;;;;;18.30;100.00;99745.66;5027108;28;20142;-68
2023/06/30 10:36:08;;;;;;;20.50;5.38;;;;;;;17.90;100.00;99743.75;5018105;28;20095;-69
2023/06/30 10:38:37;;;;;;;16.55;4.50;;;;;;;17.88;100.00;99743.03;5028450;28;20132;-68
2023/06/30 10:41:17;;;;;;;16.38;5.03;;;;;;;17.36;100.00;99738.41;5029185;28;20045;-68
2023/06/30 10:44:20;;;;;;;15.23;3.95;;;;;;;17.56;100.00;99736.75;5025423;28;20053;-68
2023/06/30 10:46:56;;;;;;;14.57;4.03;;;;;;;17.40;100.00;99739.84;4990016;28;20536;-68
2023/06/30 10:49:42;;;;;;;16.25;4.53;;;;;;;17.45;100.00;99737.66;5031936;28;20107;-68
2023/06/30 10:52:24;;;;;;;20.30;5.13;;;;;;;17.14;100.00;99728.75;5038424;28;20125;-68
2023/06/30 10:54:51;;;;;;;17.45;4.95;;;;;;;17.02;100.00;99724.47;5034166;28;20053;-68
2023/06/30 10:57:25;;;;;;;16.65;4.57;;;;;;;17.05;100.00;99708.31;5046380;28;20057;-69
2023/06/30 11:00:05;;;;;;;22.35;5.38;;;;;;;16.79;100.00;99715.69;5047670;28;20045;-68
2023/06/30 11:02:33;;;;;;;18.88;4.63;;;;;;;16.68;100.00;99706.81;5020047;28;20096;-68
2023/06/30 11:05:21;;;;;;;15.80;4.60;;;;;;;16.86;100.00;99709.00;5029479;28;20045;-68
2023/06/30 11:07:52;;;;;;;25.63;4.97;;;;;;;16.85;100.00;99712.59;5027536;28;20136;-68
2023/06/30 11:10:50;;;;;;;13.13;4.30;;;;;;;17.10;100.00;99713.25;5024103;28;20069;-68
2023/06/30 11:13:36;;;;;;;22.05;4.65;;;;;;;17.08;100.00;99708.09;5018937;28;20049;-68
2023/06/30 11:16:05;;;;;;;19.85;4.95;;;;;;;16.83;100.00;99706.56;5023543;28;20140;-68
2023/06/30 11:18:33;;;;;;;15.65;4.93;;;;;;;16.50;100.00;99705.63;5020417;28;20434;-68
2023/06/30 11:21:03;;;;;;;15.45;4.07;;;;;;;16.81;100.00;99705.84;5015393;28;20049;-68
2023/06/30 11:23:37;;;;;;;23.60;5.18;;;;;;;16.96;100.00;99707.25;5017069;28;20491;-68